METAR Formatted Surface Weather Observation
Issued by NWS

Home | Current Version | Previous Version | Text Only | Print | Product List | Glossary On
Versions: 1 2 3 4 5
000
SAUS41 KPHI 201604
MTRNEL
METAR KNEL 201600Z AUTO 16011KT 10SM FEW033 SCT041 23/14 A3025 RMK
AO2 SLP241 T02330144



USA.gov is the U.S. government's official web portal to all federal, state and local government web resources and services.